createdAt,value
2019-03-23T00:00:31.037Z,8.26
2019-03-23T00:03:00.799Z,8.21
2019-03-23T00:05:30.599Z,8.24
2019-03-23T00:08:00.596Z,8.23
2019-03-23T00:10:30.505Z,8.19
2019-03-23T00:13:00.303Z,8.16
2019-03-23T00:15:30.127Z,8.12
2019-03-23T00:17:59.935Z,8.13
2019-03-23T00:20:29.739Z,8.10
2019-03-23T00:22:59.538Z,8.08
2019-03-23T00:25:29.332Z,8.18
2019-03-23T00:27:59.121Z,8.11
2019-03-23T00:30:28.948Z,8.12
2019-03-23T00:32:58.856Z,8.08
2019-03-23T00:35:28.758Z,8.07
2019-03-23T00:37:58.714Z,8.03
2019-03-23T00:40:28.514Z,7.93
2019-03-23T00:42:58.278Z,7.84
2019-03-23T00:45:28.175Z,7.85
2019-03-23T00:47:58.164Z,7.81
2019-03-23T00:50:28.053Z,7.83
2019-03-23T00:52:57.806Z,7.63
2019-03-23T00:55:27.670Z,7.51
2019-03-23T00:57:57.537Z,7.23
2019-03-23T01:00:27.310Z,7.13
2019-03-23T01:02:57.069Z,7.10
2019-03-23T01:05:26.978Z,7.17
2019-03-23T01:07:57.021Z,7.26
2019-03-23T01:10:26.843Z,7.26
2019-03-23T01:12:56.694Z,7.28
2019-03-23T01:15:26.624Z,7.31
2019-03-23T01:17:56.435Z,7.36
2019-03-23T01:20:26.217Z,7.40
2019-03-23T01:22:55.963Z,7.43
2019-03-23T01:25:26.023Z,7.50
2019-03-23T01:27:55.763Z,7.46
2019-03-23T01:30:25.629Z,7.49
2019-03-23T01:32:55.399Z,7.49
2019-03-23T01:35:25.294Z,7.34
2019-03-23T01:37:55.146Z,7.32
2019-03-23T01:40:24.917Z,7.23
2019-03-23T01:42:54.653Z,7.31
2019-03-23T01:45:24.546Z,7.28
2019-03-23T01:47:54.321Z,7.26
2019-03-23T01:50:24.196Z,7.20
2019-03-23T01:52:54.045Z,7.21
2019-03-23T01:55:24.008Z,7.15
2019-03-23T01:57:53.770Z,7.12
2019-03-23T02:00:23.556Z,7.07
2019-03-23T02:02:53.329Z,7.07
2019-03-23T02:05:23.197Z,6.92
2019-03-23T02:07:53.158Z,6.59
2019-03-23T02:10:23.031Z,6.32
2019-03-23T02:12:52.775Z,6.36
2019-03-23T02:15:22.552Z,6.40
2019-03-23T02:17:52.406Z,6.43
2019-03-23T02:20:22.201Z,6.32
2019-03-23T02:22:51.960Z,6.33
2019-03-23T02:25:21.738Z,6.34
2019-03-23T02:27:51.652Z,6.41
2019-03-23T02:30:21.571Z,6.48
2019-03-23T02:32:51.352Z,6.51
2019-03-23T02:35:21.130Z,6.52
2019-03-23T02:37:51.106Z,6.49
2019-03-23T02:40:20.884Z,6.25
2019-03-23T02:42:50.621Z,6.18
2019-03-23T02:45:20.793Z,6.22
2019-03-23T02:47:50.756Z,6.16
2019-03-23T02:50:20.537Z,6.16
2019-03-23T02:52:50.285Z,6.09
2019-03-23T02:55:20.021Z,6.14
2019-03-23T02:57:49.803Z,6.16
2019-03-23T03:00:19.647Z,6.17
2019-03-23T03:02:49.405Z,6.23
2019-03-23T03:05:19.242Z,6.24
2019-03-23T03:07:49.022Z,6.25
2019-03-23T03:10:38.889Z,6.26
2019-03-23T03:13:08.848Z,6.20
2019-03-23T03:15:38.616Z,6.13
2019-03-23T03:18:09.136Z,5.98
2019-03-23T03:20:38.892Z,5.98
2019-03-23T03:23:08.684Z,5.94
2019-03-23T03:25:38.528Z,5.91
2019-03-23T03:28:08.456Z,5.96
2019-03-23T03:30:38.327Z,6.00
2019-03-23T03:33:08.220Z,6.00
2019-03-23T03:35:38.181Z,5.95
2019-03-23T03:38:08.064Z,6.02
2019-03-23T03:40:37.812Z,5.95
2019-03-23T03:43:07.610Z,5.97
2019-03-23T03:45:37.345Z,5.96
2019-03-23T03:48:07.121Z,5.97
2019-03-23T03:50:36.868Z,5.87
2019-03-23T03:53:06.649Z,5.88
2019-03-23T03:55:36.397Z,5.86
2019-03-23T03:58:06.185Z,5.84
2019-03-23T04:00:36.081Z,5.72
2019-03-23T04:03:05.972Z,5.68
2019-03-23T04:05:35.943Z,5.77
2019-03-23T04:08:11.686Z,5.67
2019-03-23T04:10:37.504Z,5.71
2019-03-23T04:13:07.862Z,5.69
2019-03-23T04:15:37.808Z,5.73
2019-03-23T04:18:07.575Z,5.63
2019-03-23T04:20:37.428Z,5.51
2019-03-23T04:23:07.429Z,5.34
2019-03-23T04:25:37.217Z,5.36
2019-03-23T04:28:07.013Z,5.37
2019-03-23T04:30:36.885Z,5.29
2019-03-23T04:33:06.793Z,5.25
2019-03-23T04:35:36.536Z,5.23
2019-03-23T04:38:06.410Z,5.12
2019-03-23T04:40:36.168Z,5.05
2019-03-23T04:43:06.078Z,5.03
2019-03-23T04:45:36.036Z,4.98
2019-03-23T04:48:05.917Z,4.90
2019-03-23T04:50:35.759Z,4.94
2019-03-23T04:53:05.532Z,4.94
2019-03-23T04:55:35.426Z,4.99
2019-03-23T04:58:05.413Z,5.02
2019-03-23T05:00:35.157Z,4.88
2019-03-23T05:03:04.945Z,4.87
2019-03-23T05:05:34.897Z,4.83
2019-03-23T05:08:04.670Z,4.94
2019-03-23T05:10:34.414Z,5.01
2019-03-23T05:13:04.437Z,5.01
2019-03-23T05:15:34.182Z,5.05
2019-03-23T05:18:03.951Z,4.98
2019-03-23T05:20:33.901Z,5.01
2019-03-23T05:23:03.889Z,5.07
2019-03-23T05:25:33.765Z,4.96
2019-03-23T05:28:03.563Z,4.92
2019-03-23T05:30:33.415Z,4.95
2019-03-23T05:33:03.333Z,5.02
2019-03-23T05:35:33.090Z,5.11
2019-03-23T05:38:02.878Z,5.14
2019-03-23T05:40:32.653Z,5.12
2019-03-23T05:43:02.519Z,4.99
2019-03-23T05:45:32.470Z,4.93
2019-03-23T05:48:02.233Z,4.89
2019-03-23T05:50:32.097Z,4.79
2019-03-23T05:53:01.870Z,4.95
2019-03-23T05:55:31.838Z,5.12
2019-03-23T05:58:01.607Z,5.25
2019-03-23T06:00:31.564Z,5.37
2019-03-23T06:03:01.338Z,5.52
2019-03-23T06:05:31.090Z,5.59
2019-03-23T06:08:00.875Z,5.78
2019-03-23T06:10:30.730Z,5.82
2019-03-23T06:13:00.502Z,5.71
2019-03-23T06:15:30.279Z,5.58
2019-03-23T06:18:00.028Z,5.59
2019-03-23T06:20:29.818Z,5.73
2019-03-23T06:22:59.549Z,5.88
2019-03-23T06:25:29.351Z,6.14
2019-03-23T06:27:59.099Z,6.33
2019-03-23T06:30:28.892Z,6.52
2019-03-23T06:32:59.471Z,6.78
2019-03-23T06:35:29.299Z,7.06
2019-03-23T06:37:59.046Z,7.29
2019-03-23T06:40:28.988Z,7.54
2019-03-23T06:42:59.828Z,7.65
2019-03-23T06:45:29.904Z,7.51
2019-03-23T06:47:59.796Z,7.57
2019-03-23T06:50:29.586Z,7.85
2019-03-23T06:52:59.795Z,8.33
2019-03-23T06:55:29.680Z,9.35
2019-03-23T06:57:59.420Z,11.38
2019-03-23T07:00:29.239Z,13.37
2019-03-23T07:02:59.225Z,14.81
2019-03-23T07:05:29.003Z,16.49
2019-03-23T07:07:58.744Z,17.94
2019-03-23T07:10:28.545Z,18.88
2019-03-23T07:12:58.424Z,18.73
2019-03-23T07:15:28.212Z,18.79
2019-03-23T07:17:57.981Z,20.20
2019-03-23T07:20:27.774Z,21.12
2019-03-23T07:22:57.541Z,21.34
2019-03-23T07:25:27.446Z,22.73
2019-03-23T07:27:57.449Z,24.21
2019-03-23T07:30:27.459Z,24.19
2019-03-23T07:32:57.227Z,25.23
2019-03-23T07:35:27.113Z,26.65
2019-03-23T07:37:56.892Z,26.69
2019-03-23T07:40:26.703Z,25.77
2019-03-23T07:42:56.489Z,24.21
2019-03-23T07:45:26.269Z,23.91
2019-03-23T07:47:56.034Z,24.86
2019-03-23T07:50:25.852Z,25.25
2019-03-23T07:52:55.785Z,26.75
2019-03-23T07:55:25.583Z,25.81
2019-03-23T07:57:55.458Z,27.84
2019-03-23T08:00:25.455Z,28.17
2019-03-23T08:02:55.321Z,27.62
2019-03-23T08:05:25.287Z,26.80
2019-03-23T08:07:55.119Z,24.53
2019-03-23T08:10:32.609Z,24.27
2019-03-23T08:13:02.529Z,26.46
2019-03-23T08:15:32.470Z,28.95
2019-03-23T08:18:02.228Z,29.42
2019-03-23T08:20:32.023Z,29.08
2019-03-23T08:23:02.003Z,27.39
2019-03-23T08:25:32.126Z,28.79
2019-03-23T08:28:02.010Z,30.20
2019-03-23T08:30:31.951Z,28.96
2019-03-23T08:33:01.822Z,29.18
2019-03-23T08:35:31.604Z,30.73
2019-03-23T08:38:01.417Z,32.52
2019-03-23T08:40:31.223Z,32.92
2019-03-23T08:43:00.983Z,30.32
2019-03-23T08:45:30.796Z,31.57
2019-03-23T08:48:00.775Z,31.21
2019-03-23T08:50:30.674Z,32.33
2019-03-23T08:53:00.563Z,33.24
2019-03-23T08:55:30.476Z,33.65
2019-03-23T08:58:00.596Z,31.54
2019-03-23T09:00:30.534Z,31.71
2019-03-23T09:03:00.317Z,30.64
2019-03-23T09:05:30.161Z,31.85
2019-03-23T09:07:59.918Z,33.69
2019-03-23T09:10:29.697Z,31.56
2019-03-23T09:12:59.696Z,30.92
2019-03-23T09:15:29.488Z,31.54
2019-03-23T09:17:59.432Z,32.48
2019-03-23T09:20:29.763Z,33.03
2019-03-23T09:22:59.678Z,30.85
2019-03-23T09:25:29.448Z,30.19
2019-03-23T09:27:59.372Z,29.21
2019-03-23T09:30:29.274Z,27.00
2019-03-23T09:32:59.190Z,29.38
2019-03-23T09:35:28.962Z,28.09
2019-03-23T09:37:58.760Z,27.15
2019-03-23T09:40:28.727Z,26.74
2019-03-23T09:42:58.641Z,26.65
2019-03-23T09:45:28.531Z,27.11
2019-03-23T09:47:58.468Z,26.35
2019-03-23T09:50:28.386Z,26.34
2019-03-23T09:52:58.195Z,25.94
2019-03-23T09:55:28.802Z,25.99
2019-03-23T09:57:58.638Z,25.15
2019-03-23T10:00:28.463Z,23.54
2019-03-23T10:02:58.369Z,23.69
2019-03-23T10:05:28.281Z,24.00
2019-03-23T10:07:58.097Z,24.05
2019-03-23T10:10:27.880Z,24.85
2019-03-23T10:12:59.865Z,26.02
2019-03-23T10:15:29.660Z,25.71
2019-03-23T10:18:01.600Z,25.07
2019-03-23T10:20:31.021Z,25.88
2019-03-23T10:23:00.830Z,26.61
2019-03-23T10:25:30.641Z,25.70
2019-03-23T10:28:00.554Z,25.12
2019-03-23T10:30:30.471Z,24.79
2019-03-23T10:33:00.414Z,25.15
2019-03-23T10:35:30.309Z,25.80
2019-03-23T10:38:00.273Z,26.11
2019-03-23T10:40:32.655Z,25.82
2019-03-23T10:43:01.681Z,26.88
2019-03-23T10:45:31.461Z,28.10
2019-03-23T10:48:01.264Z,28.24
2019-03-23T10:50:31.077Z,27.57
2019-03-23T10:53:00.866Z,28.38
2019-03-23T10:55:30.622Z,27.66
2019-03-23T10:58:00.435Z,27.84
2019-03-23T11:00:30.307Z,27.94
2019-03-23T11:03:00.243Z,29.36
2019-03-23T11:05:30.090Z,30.74
2019-03-23T11:07:59.959Z,31.24
2019-03-23T11:10:29.892Z,29.84
2019-03-23T11:12:59.822Z,28.78
2019-03-23T11:15:29.710Z,28.95
2019-03-23T11:17:59.743Z,30.35
2019-03-23T11:20:29.630Z,32.10
2019-03-23T11:22:59.420Z,31.67
2019-03-23T11:25:29.193Z,30.42
2019-03-23T11:27:59.087Z,30.95
2019-03-23T11:30:29.002Z,32.36
2019-03-23T11:32:58.899Z,31.73
2019-03-23T11:35:28.699Z,31.81
2019-03-23T11:37:58.737Z,32.25
2019-03-23T11:40:29.709Z,33.06
2019-03-23T11:42:59.623Z,31.34
2019-03-23T11:45:29.459Z,30.57
2019-03-23T11:47:59.302Z,30.24
2019-03-23T11:50:29.119Z,30.45
2019-03-23T11:52:58.973Z,30.27
2019-03-23T11:55:28.754Z,29.40
2019-03-23T11:57:58.677Z,28.95
2019-03-23T12:00:28.515Z,29.40
2019-03-23T12:02:58.433Z,29.61
2019-03-23T12:05:28.392Z,30.28
2019-03-23T12:07:58.391Z,31.17
2019-03-23T12:10:28.332Z,31.36
2019-03-23T12:12:58.112Z,30.60
2019-03-23T12:15:29.789Z,30.44
2019-03-23T12:17:59.481Z,29.95
2019-03-23T12:20:29.308Z,29.12
2019-03-23T12:22:59.158Z,29.29
2019-03-23T12:25:28.995Z,28.04
2019-03-23T12:27:58.798Z,27.47
2019-03-23T12:30:28.692Z,27.42
2019-03-23T12:32:58.521Z,27.05
2019-03-23T12:35:28.373Z,26.46
2019-03-23T12:37:58.166Z,26.16
2019-03-23T12:40:27.954Z,26.80
2019-03-23T12:42:57.773Z,27.04
2019-03-23T12:45:27.638Z,27.47
2019-03-23T12:47:57.755Z,27.31
2019-03-23T12:50:27.633Z,27.21
2019-03-23T12:52:57.600Z,27.49
2019-03-23T12:55:27.531Z,27.27
2019-03-23T12:57:57.380Z,26.89
2019-03-23T13:00:27.280Z,25.81
2019-03-23T13:02:57.173Z,25.15
2019-03-23T13:05:26.995Z,24.45
2019-03-23T13:07:56.899Z,24.39
2019-03-23T13:10:26.776Z,24.33
2019-03-23T13:12:58.459Z,24.48
2019-03-23T13:15:28.506Z,24.57
2019-03-23T13:17:58.327Z,25.34
2019-03-23T13:20:28.376Z,25.84
2019-03-23T13:22:58.381Z,26.36
2019-03-23T13:25:28.226Z,26.53
2019-03-23T13:27:58.035Z,26.37
2019-03-23T13:30:27.967Z,25.66
2019-03-23T13:32:57.801Z,24.78
2019-03-23T13:35:27.607Z,23.83
2019-03-23T13:37:57.421Z,23.38
2019-03-23T13:40:27.224Z,23.29
2019-03-23T13:42:57.002Z,23.88
2019-03-23T13:45:26.794Z,23.56
2019-03-23T13:47:56.586Z,24.37
2019-03-23T13:50:30.163Z,25.29
2019-03-23T13:53:00.066Z,24.95
2019-03-23T13:55:33.369Z,24.37
2019-03-23T13:58:13.591Z,24.07
2019-03-23T14:00:43.605Z,23.83
2019-03-23T14:03:13.486Z,23.62
2019-03-23T14:05:43.271Z,23.44
2019-03-23T14:08:13.045Z,23.98
2019-03-23T14:10:42.855Z,24.95
2019-03-23T14:13:12.658Z,24.70
2019-03-23T14:15:42.401Z,24.39
2019-03-23T14:18:12.188Z,24.46
2019-03-23T14:20:41.985Z,24.85
2019-03-23T14:23:11.757Z,24.79
2019-03-23T14:25:41.536Z,24.02
2019-03-23T14:28:11.299Z,23.63
2019-03-23T14:30:41.117Z,24.45
2019-03-23T14:33:11.033Z,24.19
2019-03-23T14:35:40.805Z,24.64
2019-03-23T14:38:10.572Z,24.84
2019-03-23T14:40:41.421Z,24.58
2019-03-23T14:43:11.395Z,24.09
2019-03-23T14:45:41.183Z,24.32
2019-03-23T14:48:11.051Z,24.19
2019-03-23T14:50:42.699Z,24.52
2019-03-23T14:53:12.799Z,24.46
2019-03-23T14:55:42.708Z,24.34
2019-03-23T14:58:12.577Z,23.60
2019-03-23T15:00:42.475Z,23.48
2019-03-23T15:03:12.240Z,23.23
2019-03-23T15:05:42.135Z,22.69
2019-03-23T15:08:11.904Z,22.06
2019-03-23T15:10:41.692Z,21.68
2019-03-23T15:13:11.624Z,21.39
2019-03-23T15:15:41.592Z,21.75
2019-03-23T15:18:11.480Z,21.95
2019-03-23T15:20:41.340Z,22.44
2019-03-23T15:23:11.151Z,22.98
2019-03-23T15:25:40.893Z,23.22
2019-03-23T15:28:10.676Z,23.01
2019-03-23T15:30:40.682Z,23.50
2019-03-23T15:33:10.573Z,23.91
2019-03-23T15:35:42.696Z,24.38
2019-03-23T15:38:12.472Z,24.48
2019-03-23T15:40:42.336Z,24.29
2019-03-23T15:43:22.449Z,23.67
2019-03-23T15:45:52.427Z,23.52
2019-03-23T15:48:22.238Z,23.68
2019-03-23T15:50:51.991Z,24.21
2019-03-23T15:53:21.770Z,24.05
2019-03-23T15:55:51.643Z,23.51
2019-03-23T15:58:21.435Z,23.36
2019-03-23T16:00:51.299Z,23.30
2019-03-23T16:03:21.095Z,23.28
2019-03-23T16:05:50.867Z,23.35
2019-03-23T16:08:20.661Z,23.41
2019-03-23T16:10:50.550Z,23.32
2019-03-23T16:13:20.437Z,23.52
2019-03-23T16:15:50.214Z,23.33
2019-03-23T16:18:20.001Z,23.05
2019-03-23T16:20:49.766Z,22.99
2019-03-23T16:23:19.757Z,22.96
2019-03-23T16:25:49.654Z,22.78
2019-03-23T16:28:19.547Z,23.02
2019-03-23T16:30:49.439Z,22.91
2019-03-23T16:33:19.236Z,22.87
2019-03-23T16:35:48.991Z,22.85
2019-03-23T16:38:18.782Z,22.87
2019-03-23T16:40:48.683Z,22.98
2019-03-23T16:43:18.591Z,22.72
2019-03-23T16:45:48.354Z,22.55
2019-03-23T16:48:18.246Z,22.17
2019-03-23T16:50:48.079Z,21.97
2019-03-23T16:53:17.886Z,21.93
2019-03-23T16:55:47.793Z,21.95
2019-03-23T16:58:17.693Z,21.87
2019-03-23T17:00:47.562Z,21.65
2019-03-23T17:03:17.344Z,21.42
2019-03-23T17:05:47.232Z,21.30
2019-03-23T17:08:17.027Z,20.89
2019-03-23T17:10:46.811Z,20.67
2019-03-23T17:13:16.625Z,20.37
2019-03-23T17:15:46.467Z,20.21
2019-03-23T17:18:16.247Z,19.95
2019-03-23T17:20:46.068Z,19.51
2019-03-23T17:23:15.974Z,19.24
2019-03-23T17:25:45.852Z,19.04
2019-03-23T17:28:15.886Z,18.88
2019-03-23T17:30:45.743Z,18.66
2019-03-23T17:33:15.675Z,18.40
2019-03-23T17:35:45.561Z,18.25
2019-03-23T17:38:15.365Z,18.07
2019-03-23T17:40:45.249Z,17.88
2019-03-23T17:43:15.048Z,17.69
2019-03-23T17:45:44.861Z,17.43
2019-03-23T17:48:14.678Z,17.17
2019-03-23T17:50:44.678Z,17.04
2019-03-23T17:53:14.760Z,16.98
2019-03-23T17:55:44.742Z,16.88
2019-03-23T17:58:14.567Z,16.79
2019-03-23T18:00:44.352Z,16.64
2019-03-23T18:03:14.255Z,16.48
2019-03-23T18:05:44.070Z,16.43
2019-03-23T18:08:13.887Z,16.30
2019-03-23T18:10:43.756Z,16.21
2019-03-23T18:13:16.814Z,16.04
2019-03-23T18:15:45.081Z,15.91
2019-03-23T18:18:14.984Z,15.67
2019-03-23T18:20:44.853Z,15.53
2019-03-23T18:23:15.921Z,15.46
2019-03-23T18:25:46.138Z,15.36
2019-03-23T18:28:16.000Z,15.27
2019-03-23T18:30:47.142Z,15.16
2019-03-23T18:33:16.947Z,15.02
2019-03-23T18:35:46.771Z,14.97
2019-03-23T18:38:16.746Z,14.92
2019-03-23T18:40:46.676Z,14.84
2019-03-23T18:43:26.675Z,14.61
2019-03-23T18:45:48.062Z,14.54
2019-03-23T18:48:17.865Z,14.34
2019-03-23T18:50:47.677Z,14.20
2019-03-23T18:53:17.678Z,14.15
2019-03-23T18:55:47.597Z,14.08
2019-03-23T18:58:17.396Z,14.01
2019-03-23T19:00:47.275Z,13.96
2019-03-23T19:03:17.049Z,13.90
2019-03-23T19:05:46.878Z,13.84
2019-03-23T19:08:16.681Z,13.76
2019-03-23T19:10:46.491Z,13.73
2019-03-23T19:13:16.324Z,13.68
2019-03-23T19:15:46.142Z,13.65
2019-03-23T19:18:16.007Z,13.53
2019-03-23T19:20:45.809Z,13.46
2019-03-23T19:23:15.804Z,13.39
2019-03-23T19:25:45.611Z,13.35
2019-03-23T19:28:15.379Z,13.25
2019-03-23T19:30:45.409Z,13.22
2019-03-23T19:33:15.217Z,13.08
2019-03-23T19:35:45.089Z,12.86
2019-03-23T19:38:14.877Z,12.70
2019-03-23T19:40:44.782Z,12.59
2019-03-23T19:43:14.573Z,12.54
2019-03-23T19:45:44.377Z,12.48
2019-03-23T19:48:14.193Z,12.46
2019-03-23T19:50:44.042Z,12.53
2019-03-23T19:53:13.822Z,12.52
2019-03-23T19:55:43.661Z,12.40
2019-03-23T19:58:13.576Z,12.25
2019-03-23T20:00:43.345Z,12.21
2019-03-23T20:03:13.315Z,12.23
2019-03-23T20:05:43.310Z,12.17
2019-03-23T20:08:13.082Z,12.18
2019-03-23T20:10:42.874Z,12.08
2019-03-23T20:13:12.822Z,12.11
2019-03-23T20:15:42.643Z,12.11
2019-03-23T20:18:12.409Z,12.14
2019-03-23T20:20:42.215Z,12.08
2019-03-23T20:23:12.120Z,12.01
2019-03-23T20:25:41.949Z,12.01
2019-03-23T20:28:11.817Z,11.89
2019-03-23T20:30:41.697Z,11.85
2019-03-23T20:33:19.351Z,11.80
2019-03-23T20:35:44.155Z,11.68
2019-03-23T20:38:14.390Z,11.66
2019-03-23T20:40:44.385Z,11.57
2019-03-23T20:43:14.153Z,11.59
2019-03-23T20:45:44.174Z,11.57
2019-03-23T20:48:14.244Z,11.47
2019-03-23T20:50:44.582Z,11.30
2019-03-23T20:53:16.148Z,11.08
2019-03-23T20:55:45.955Z,11.13
2019-03-23T20:58:15.692Z,10.99
2019-03-23T21:00:45.490Z,10.92
2019-03-23T21:03:15.267Z,11.01
2019-03-23T21:05:45.064Z,11.04
2019-03-23T21:08:14.844Z,10.98
2019-03-23T21:10:44.637Z,10.97
2019-03-23T21:13:14.399Z,10.96
2019-03-23T21:15:44.365Z,10.84
2019-03-23T21:18:14.173Z,10.73
2019-03-23T21:20:43.974Z,10.55
2019-03-23T21:23:13.756Z,10.19
2019-03-23T21:25:43.558Z,9.70
2019-03-23T21:28:13.312Z,9.75
2019-03-23T21:30:43.107Z,9.88
2019-03-23T21:33:12.896Z,9.94
2019-03-23T21:35:42.733Z,10.04
2019-03-23T21:38:12.603Z,10.10
2019-03-23T21:40:42.396Z,10.09
2019-03-23T21:43:12.159Z,10.12
2019-03-23T21:45:44.171Z,10.12
2019-03-23T21:48:13.933Z,10.12
2019-03-23T21:50:47.734Z,10.06
2019-03-23T21:53:15.217Z,10.04
2019-03-23T21:55:45.134Z,9.81
2019-03-23T21:58:14.908Z,9.88
2019-03-23T22:00:44.723Z,9.85
2019-03-23T22:03:14.503Z,9.88
2019-03-23T22:05:44.275Z,9.88
2019-03-23T22:08:14.211Z,9.98
2019-03-23T22:10:44.024Z,9.91
2019-03-23T22:13:13.771Z,9.74
2019-03-23T22:15:43.529Z,9.68
2019-03-23T22:18:13.322Z,9.73
2019-03-23T22:20:43.089Z,9.67
2019-03-23T22:23:12.894Z,9.62
2019-03-23T22:25:42.652Z,9.61
2019-03-23T22:28:12.438Z,9.54
2019-03-23T22:30:42.205Z,9.52
2019-03-23T22:33:12.026Z,9.45
2019-03-23T22:35:41.856Z,9.44
2019-03-23T22:38:11.654Z,9.47
2019-03-23T22:40:41.428Z,9.54
2019-03-23T22:43:11.213Z,9.45
2019-03-23T22:45:41.008Z,9.38
2019-03-23T22:48:10.777Z,9.33
2019-03-23T22:50:40.540Z,9.23
2019-03-23T22:53:10.332Z,9.23
2019-03-23T22:55:40.339Z,9.20
2019-03-23T22:58:10.120Z,9.19
2019-03-23T23:00:44.435Z,9.18
2019-03-23T23:03:14.700Z,9.20
2019-03-23T23:05:44.541Z,9.26
2019-03-23T23:08:14.426Z,9.26
2019-03-23T23:10:44.193Z,9.26
2019-03-23T23:13:13.987Z,9.10
2019-03-23T23:15:43.746Z,8.98
2019-03-23T23:18:13.523Z,8.97
2019-03-23T23:20:43.288Z,8.92
2019-03-23T23:23:13.071Z,8.86
2019-03-23T23:25:42.941Z,8.72
2019-03-23T23:28:12.746Z,8.58
2019-03-23T23:30:42.523Z,8.64
2019-03-23T23:33:12.331Z,8.58
2019-03-23T23:35:42.116Z,8.47
2019-03-23T23:38:12.091Z,8.47
2019-03-23T23:40:42.058Z,8.43
2019-03-23T23:43:11.852Z,8.44
2019-03-23T23:45:41.670Z,8.39
2019-03-23T23:48:11.490Z,8.38
2019-03-23T23:50:41.430Z,8.34
2019-03-23T23:53:11.374Z,8.28
2019-03-23T23:55:41.160Z,8.23
2019-03-23T23:58:11.178Z,8.24
